sensor_id;sensor_type;location;lat;lon;timestamp;P1;durP1;ratioP1;P2;durP2;ratioP2
59294;SDS011;45067;44.654;20.200;2023-02-15T00:01:36;88.45;;;44.67;;
59294;SDS011;45067;44.654;20.200;2023-02-15T00:04:28;81.15;;;43.03;;
59294;SDS011;45067;44.654;20.200;2023-02-15T00:09:45;56.28;;;33.45;;
59294;SDS011;45067;44.654;20.200;2023-02-15T00:15:22;79.93;;;42.25;;
59294;SDS011;45067;44.654;20.200;2023-02-15T00:17:56;64.45;;;36.45;;
59294;SDS011;45067;44.654;20.200;2023-02-15T00:20:26;77.65;;;40.22;;
59294;SDS011;45067;44.654;20.200;2023-02-15T00:23:00;72.93;;;39.40;;
59294;SDS011;45067;44.654;20.200;2023-02-15T00:25:40;63.90;;;37.58;;
59294;SDS011;45067;44.654;20.200;2023-02-15T00:34:13;75.97;;;41.42;;
59294;SDS011;45067;44.654;20.200;2023-02-15T00:36:45;77.57;;;42.88;;
59294;SDS011;45067;44.654;20.200;2023-02-15T00:39:25;68.25;;;38.47;;
59294;SDS011;45067;44.654;20.200;2023-02-15T00:41:59;75.97;;;42.42;;
59294;SDS011;45067;44.654;20.200;2023-02-15T00:44:48;73.50;;;39.90;;
59294;SDS011;45067;44.654;20.200;2023-02-15T00:47:42;77.07;;;42.15;;
59294;SDS011;45067;44.654;20.200;2023-02-15T00:50:18;76.43;;;43.20;;
59294;SDS011;45067;44.654;20.200;2023-02-15T00:52:46;70.82;;;41.08;;
59294;SDS011;45067;44.654;20.200;2023-02-15T00:55:18;79.28;;;43.35;;
59294;SDS011;45067;44.654;20.200;2023-02-15T01:00:46;63.17;;;35.30;;
59294;SDS011;45067;44.654;20.200;2023-02-15T01:03:15;63.05;;;36.15;;
59294;SDS011;45067;44.654;20.200;2023-02-15T01:05:49;62.78;;;36.17;;
59294;SDS011;45067;44.654;20.200;2023-02-15T01:08:37;62.42;;;34.97;;
59294;SDS011;45067;44.654;20.200;2023-02-15T01:11:21;57.05;;;34.95;;
59294;SDS011;45067;44.654;20.200;2023-02-15T01:17:39;56.35;;;32.10;;
59294;SDS011;45067;44.654;20.200;2023-02-15T01:23:09;53.80;;;32.10;;
59294;SDS011;45067;44.654;20.200;2023-02-15T01:31:19;54.70;;;32.03;;
59294;SDS011;45067;44.654;20.200;2023-02-15T01:34:03;63.15;;;34.90;;
59294;SDS011;45067;44.654;20.200;2023-02-15T01:36:35;60.97;;;33.85;;
59294;SDS011;45067;44.654;20.200;2023-02-15T01:39:08;56.65;;;33.40;;
59294;SDS011;45067;44.654;20.200;2023-02-15T01:41:37;59.85;;;33.45;;
59294;SDS011;45067;44.654;20.200;2023-02-15T01:47:42;52.00;;;32.03;;
59294;SDS011;45067;44.654;20.200;2023-02-15T01:53:18;59.42;;;33.65;;
59294;SDS011;45067;44.654;20.200;2023-02-15T01:55:59;64.18;;;35.42;;
59294;SDS011;45067;44.654;20.200;2023-02-15T01:58:31;59.45;;;35.55;;
59294;SDS011;45067;44.654;20.200;2023-02-15T02:01:16;64.22;;;35.05;;
59294;SDS011;45067;44.654;20.200;2023-02-15T02:04:15;65.07;;;36.92;;
59294;SDS011;45067;44.654;20.200;2023-02-15T02:07:04;59.65;;;34.55;;
59294;SDS011;45067;44.654;20.200;2023-02-15T02:09:49;72.38;;;39.47;;
59294;SDS011;45067;44.654;20.200;2023-02-15T02:12:22;68.68;;;38.97;;
59294;SDS011;45067;44.654;20.200;2023-02-15T02:15:09;66.05;;;38.28;;
59294;SDS011;45067;44.654;20.200;2023-02-15T02:17:49;64.10;;;37.72;;
59294;SDS011;45067;44.654;20.200;2023-02-15T02:37:13;56.47;;;32.15;;
59294;SDS011;45067;44.654;20.200;2023-02-15T02:39:56;53.28;;;31.08;;
59294;SDS011;45067;44.654;20.200;2023-02-15T02:50:38;50.15;;;30.48;;
59294;SDS011;45067;44.654;20.200;2023-02-15T02:53:10;53.85;;;29.95;;
59294;SDS011;45067;44.654;20.200;2023-02-15T03:02:03;52.50;;;31.77;;
59294;SDS011;45067;44.654;20.200;2023-02-15T03:04:45;49.05;;;30.40;;
59294;SDS011;45067;44.654;20.200;2023-02-15T03:10:13;51.28;;;29.88;;
59294;SDS011;45067;44.654;20.200;2023-02-15T03:13:20;56.13;;;32.80;;
59294;SDS011;45067;44.654;20.200;2023-02-15T03:16:06;60.92;;;35.25;;
59294;SDS011;45067;44.654;20.200;2023-02-15T03:19:35;59.13;;;33.00;;
59294;SDS011;45067;44.654;20.200;2023-02-15T03:22:28;55.97;;;33.55;;
59294;SDS011;45067;44.654;20.200;2023-02-15T03:31:15;51.28;;;30.17;;
59294;SDS011;45067;44.654;20.200;2023-02-15T03:36:47;53.80;;;30.48;;
59294;SDS011;45067;44.654;20.200;2023-02-15T03:42:35;51.85;;;30.20;;
59294;SDS011;45067;44.654;20.200;2023-02-15T03:48:33;49.08;;;29.25;;
59294;SDS011;45067;44.654;20.200;2023-02-15T03:51:12;48.03;;;29.20;;
59294;SDS011;45067;44.654;20.200;2023-02-15T03:54:12;51.55;;;30.98;;
59294;SDS011;45067;44.654;20.200;2023-02-15T03:57:00;55.88;;;32.65;;
59294;SDS011;45067;44.654;20.200;2023-02-15T04:02:38;50.65;;;30.83;;
59294;SDS011;45067;44.654;20.200;2023-02-15T04:05:33;50.72;;;30.70;;
59294;SDS011;45067;44.654;20.200;2023-02-15T04:08:03;59.87;;;32.23;;
59294;SDS011;45067;44.654;20.200;2023-02-15T04:10:31;55.03;;;30.38;;
59294;SDS011;45067;44.654;20.200;2023-02-15T04:13:17;55.78;;;31.63;;
59294;SDS011;45067;44.654;20.200;2023-02-15T04:15:47;51.50;;;30.73;;
59294;SDS011;45067;44.654;20.200;2023-02-15T04:18:51;47.33;;;28.52;;
59294;SDS011;45067;44.654;20.200;2023-02-15T04:21:42;61.43;;;35.10;;
59294;SDS011;45067;44.654;20.200;2023-02-15T04:27:07;61.10;;;35.38;;
59294;SDS011;45067;44.654;20.200;2023-02-15T04:29:42;59.00;;;35.22;;
59294;SDS011;45067;44.654;20.200;2023-02-15T04:32:12;60.75;;;35.40;;
59294;SDS011;45067;44.654;20.200;2023-02-15T04:34:47;59.10;;;35.50;;
59294;SDS011;45067;44.654;20.200;2023-02-15T04:37:18;60.38;;;34.55;;
59294;SDS011;45067;44.654;20.200;2023-02-15T04:39:51;58.60;;;33.45;;
59294;SDS011;45067;44.654;20.200;2023-02-15T04:42:20;59.58;;;36.17;;
59294;SDS011;45067;44.654;20.200;2023-02-15T04:44:59;58.95;;;34.35;;
59294;SDS011;45067;44.654;20.200;2023-02-15T04:50:01;60.28;;;33.88;;
59294;SDS011;45067;44.654;20.200;2023-02-15T04:53:11;64.30;;;35.75;;
59294;SDS011;45067;44.654;20.200;2023-02-15T04:58:31;53.47;;;31.58;;
59294;SDS011;45067;44.654;20.200;2023-02-15T05:04:13;55.13;;;30.58;;
59294;SDS011;45067;44.654;20.200;2023-02-15T05:06:44;55.90;;;33.17;;
59294;SDS011;45067;44.654;20.200;2023-02-15T05:09:12;45.58;;;27.25;;
59294;SDS011;45067;44.654;20.200;2023-02-15T05:12:02;47.00;;;27.42;;
59294;SDS011;45067;44.654;20.200;2023-02-15T05:17:47;40.67;;;24.95;;
59294;SDS011;45067;44.654;20.200;2023-02-15T05:20:22;47.13;;;27.42;;
59294;SDS011;45067;44.654;20.200;2023-02-15T05:25:27;39.85;;;24.50;;
59294;SDS011;45067;44.654;20.200;2023-02-15T05:34:08;56.25;;;32.70;;
59294;SDS011;45067;44.654;20.200;2023-02-15T05:42:29;55.78;;;33.42;;
59294;SDS011;45067;44.654;20.200;2023-02-15T05:45:31;57.25;;;33.88;;
59294;SDS011;45067;44.654;20.200;2023-02-15T05:48:04;51.10;;;30.42;;
59294;SDS011;45067;44.654;20.200;2023-02-15T05:53:27;53.45;;;32.30;;
59294;SDS011;45067;44.654;20.200;2023-02-15T05:56:28;59.70;;;34.33;;
59294;SDS011;45067;44.654;20.200;2023-02-15T06:01:55;49.35;;;30.45;;
59294;SDS011;45067;44.654;20.200;2023-02-15T06:04:50;51.97;;;32.08;;
59294;SDS011;45067;44.654;20.200;2023-02-15T06:07:49;55.25;;;32.65;;
59294;SDS011;45067;44.654;20.200;2023-02-15T06:10:30;54.70;;;32.67;;
59294;SDS011;45067;44.654;20.200;2023-02-15T06:13:21;51.20;;;30.85;;
59294;SDS011;45067;44.654;20.200;2023-02-15T06:15:53;50.03;;;28.98;;
59294;SDS011;45067;44.654;20.200;2023-02-15T06:20:59;57.33;;;32.47;;
59294;SDS011;45067;44.654;20.200;2023-02-15T06:23:30;50.47;;;31.83;;
59294;SDS011;45067;44.654;20.200;2023-02-15T06:26:12;52.60;;;30.60;;
59294;SDS011;45067;44.654;20.200;2023-02-15T06:28:48;53.03;;;29.75;;
59294;SDS011;45067;44.654;20.200;2023-02-15T06:31:20;41.45;;;25.85;;
59294;SDS011;45067;44.654;20.200;2023-02-15T06:36:40;54.05;;;29.80;;
59294;SDS011;45067;44.654;20.200;2023-02-15T06:39:55;49.10;;;27.88;;
59294;SDS011;45067;44.654;20.200;2023-02-15T06:42:35;57.17;;;32.05;;
59294;SDS011;45067;44.654;20.200;2023-02-15T06:45:07;55.25;;;30.70;;
59294;SDS011;45067;44.654;20.200;2023-02-15T06:47:54;49.38;;;29.80;;
59294;SDS011;45067;44.654;20.200;2023-02-15T06:52:57;46.63;;;27.88;;
59294;SDS011;45067;44.654;20.200;2023-02-15T07:00:45;50.08;;;29.67;;
59294;SDS011;45067;44.654;20.200;2023-02-15T07:03:12;54.08;;;31.40;;
59294;SDS011;45067;44.654;20.200;2023-02-15T07:05:39;55.15;;;33.67;;
59294;SDS011;45067;44.654;20.200;2023-02-15T07:08:14;59.25;;;32.40;;
59294;SDS011;45067;44.654;20.200;2023-02-15T07:10:50;53.25;;;32.28;;
59294;SDS011;45067;44.654;20.200;2023-02-15T07:13:20;54.22;;;33.50;;
59294;SDS011;45067;44.654;20.200;2023-02-15T07:18:51;39.67;;;25.02;;
59294;SDS011;45067;44.654;20.200;2023-02-15T07:21:19;47.65;;;27.20;;
59294;SDS011;45067;44.654;20.200;2023-02-15T07:23:45;51.67;;;31.48;;
59294;SDS011;45067;44.654;20.200;2023-02-15T07:26:11;51.50;;;31.10;;
59294;SDS011;45067;44.654;20.200;2023-02-15T07:28:37;52.20;;;31.35;;
59294;SDS011;45067;44.654;20.200;2023-02-15T07:31:07;54.20;;;32.10;;
59294;SDS011;45067;44.654;20.200;2023-02-15T07:33:34;43.45;;;26.55;;
59294;SDS011;45067;44.654;20.200;2023-02-15T07:36:04;46.38;;;26.83;;
59294;SDS011;45067;44.654;20.200;2023-02-15T07:38:33;42.22;;;26.85;;
59294;SDS011;45067;44.654;20.200;2023-02-15T07:41:00;42.80;;;27.65;;
59294;SDS011;45067;44.654;20.200;2023-02-15T07:43:27;45.47;;;27.77;;
59294;SDS011;45067;44.654;20.200;2023-02-15T07:45:54;41.88;;;27.08;;
59294;SDS011;45067;44.654;20.200;2023-02-15T07:48:20;45.58;;;27.80;;
59294;SDS011;45067;44.654;20.200;2023-02-15T07:50:49;46.28;;;26.80;;
59294;SDS011;45067;44.654;20.200;2023-02-15T07:53:15;46.90;;;29.38;;
59294;SDS011;45067;44.654;20.200;2023-02-15T07:55:41;50.15;;;29.33;;
59294;SDS011;45067;44.654;20.200;2023-02-15T07:58:07;49.90;;;29.52;;
59294;SDS011;45067;44.654;20.200;2023-02-15T08:00:34;44.40;;;28.13;;
59294;SDS011;45067;44.654;20.200;2023-02-15T08:03:22;49.80;;;29.10;;
59294;SDS011;45067;44.654;20.200;2023-02-15T08:05:48;41.90;;;26.02;;
59294;SDS011;45067;44.654;20.200;2023-02-15T08:08:14;44.90;;;28.00;;
59294;SDS011;45067;44.654;20.200;2023-02-15T08:10:57;48.58;;;29.60;;
59294;SDS011;45067;44.654;20.200;2023-02-15T08:13:43;55.67;;;31.83;;
59294;SDS011;45067;44.654;20.200;2023-02-15T08:16:21;51.20;;;31.35;;
59294;SDS011;45067;44.654;20.200;2023-02-15T08:18:47;54.33;;;31.52;;
59294;SDS011;45067;44.654;20.200;2023-02-15T08:21:13;55.47;;;33.55;;
59294;SDS011;45067;44.654;20.200;2023-02-15T08:23:39;51.65;;;30.13;;
59294;SDS011;45067;44.654;20.200;2023-02-15T08:26:05;55.03;;;33.00;;
59294;SDS011;45067;44.654;20.200;2023-02-15T08:28:32;77.68;;;42.42;;
59294;SDS011;45067;44.654;20.200;2023-02-15T08:31:11;61.85;;;38.53;;
59294;SDS011;45067;44.654;20.200;2023-02-15T08:33:38;59.13;;;36.65;;
59294;SDS011;45067;44.654;20.200;2023-02-15T08:38:30;53.75;;;32.85;;
59294;SDS011;45067;44.654;20.200;2023-02-15T08:40:57;52.80;;;34.13;;
59294;SDS011;45067;44.654;20.200;2023-02-15T08:43:23;57.22;;;34.35;;
59294;SDS011;45067;44.654;20.200;2023-02-15T08:45:49;51.25;;;30.75;;
59294;SDS011;45067;44.654;20.200;2023-02-15T08:48:15;55.00;;;32.25;;
59294;SDS011;45067;44.654;20.200;2023-02-15T08:50:41;44.47;;;27.75;;
59294;SDS011;45067;44.654;20.200;2023-02-15T08:53:07;45.35;;;28.50;;
59294;SDS011;45067;44.654;20.200;2023-02-15T08:55:33;49.13;;;30.75;;
59294;SDS011;45067;44.654;20.200;2023-02-15T08:58:00;44.92;;;28.63;;
59294;SDS011;45067;44.654;20.200;2023-02-15T09:00:27;42.05;;;24.60;;
59294;SDS011;45067;44.654;20.200;2023-02-15T09:02:53;38.80;;;24.38;;
59294;SDS011;45067;44.654;20.200;2023-02-15T09:05:20;38.08;;;22.55;;
59294;SDS011;45067;44.654;20.200;2023-02-15T09:07:46;30.77;;;19.95;;
59294;SDS011;45067;44.654;20.200;2023-02-15T09:10:12;41.83;;;25.48;;
59294;SDS011;45067;44.654;20.200;2023-02-15T09:12:38;37.08;;;22.40;;
59294;SDS011;45067;44.654;20.200;2023-02-15T09:15:04;32.70;;;20.42;;
59294;SDS011;45067;44.654;20.200;2023-02-15T09:17:30;33.42;;;20.75;;
59294;SDS011;45067;44.654;20.200;2023-02-15T09:19:56;29.45;;;19.42;;
59294;SDS011;45067;44.654;20.200;2023-02-15T09:22:22;31.27;;;20.20;;
59294;SDS011;45067;44.654;20.200;2023-02-15T09:24:48;36.40;;;22.30;;
59294;SDS011;45067;44.654;20.200;2023-02-15T09:27:14;32.47;;;20.67;;
59294;SDS011;45067;44.654;20.200;2023-02-15T09:29:41;32.28;;;19.00;;
59294;SDS011;45067;44.654;20.200;2023-02-15T09:35:10;30.95;;;18.58;;
59294;SDS011;45067;44.654;20.200;2023-02-15T09:37:36;30.98;;;19.48;;
59294;SDS011;45067;44.654;20.200;2023-02-15T09:40:02;26.60;;;16.00;;
59294;SDS011;45067;44.654;20.200;2023-02-15T09:52:35;28.75;;;18.55;;
59294;SDS011;45067;44.654;20.200;2023-02-15T09:55:09;26.92;;;17.42;;
59294;SDS011;45067;44.654;20.200;2023-02-15T10:10:54;31.63;;;20.92;;
59294;SDS011;45067;44.654;20.200;2023-02-15T10:13:35;24.33;;;16.90;;
59294;SDS011;45067;44.654;20.200;2023-02-15T10:18:42;24.08;;;17.17;;
59294;SDS011;45067;44.654;20.200;2023-02-15T10:24:25;22.05;;;15.68;;
59294;SDS011;45067;44.654;20.200;2023-02-15T10:27:01;23.38;;;15.68;;
59294;SDS011;45067;44.654;20.200;2023-02-15T10:29:30;27.23;;;16.60;;
59294;SDS011;45067;44.654;20.200;2023-02-15T10:34:48;23.90;;;16.25;;
59294;SDS011;45067;44.654;20.200;2023-02-15T10:51:10;24.23;;;14.13;;
59294;SDS011;45067;44.654;20.200;2023-02-15T10:56:19;22.23;;;14.27;;
59294;SDS011;45067;44.654;20.200;2023-02-15T10:59:03;20.85;;;12.95;;
59294;SDS011;45067;44.654;20.200;2023-02-15T11:04:40;22.30;;;16.17;;
59294;SDS011;45067;44.654;20.200;2023-02-15T11:07:26;26.27;;;17.45;;
59294;SDS011;45067;44.654;20.200;2023-02-15T11:09:56;23.80;;;16.02;;
59294;SDS011;45067;44.654;20.200;2023-02-15T11:12:27;24.95;;;16.98;;
59294;SDS011;45067;44.654;20.200;2023-02-15T11:15:09;26.73;;;17.77;;
59294;SDS011;45067;44.654;20.200;2023-02-15T11:23:14;20.08;;;14.57;;
59294;SDS011;45067;44.654;20.200;2023-02-15T11:25:41;19.63;;;14.48;;
59294;SDS011;45067;44.654;20.200;2023-02-15T11:28:19;22.08;;;13.90;;
59294;SDS011;45067;44.654;20.200;2023-02-15T11:30:49;20.27;;;14.30;;
59294;SDS011;45067;44.654;20.200;2023-02-15T11:33:21;23.95;;;15.07;;
59294;SDS011;45067;44.654;20.200;2023-02-15T11:35:51;20.65;;;13.88;;
59294;SDS011;45067;44.654;20.200;2023-02-15T11:40:48;22.77;;;15.95;;
59294;SDS011;45067;44.654;20.200;2023-02-15T11:43:16;28.80;;;19.45;;
59294;SDS011;45067;44.654;20.200;2023-02-15T11:45:44;32.20;;;20.83;;
59294;SDS011;45067;44.654;20.200;2023-02-15T11:48:11;25.00;;;17.05;;
59294;SDS011;45067;44.654;20.200;2023-02-15T11:50:38;23.98;;;15.88;;
59294;SDS011;45067;44.654;20.200;2023-02-15T11:53:18;25.05;;;16.70;;
59294;SDS011;45067;44.654;20.200;2023-02-15T11:55:46;22.10;;;16.23;;
59294;SDS011;45067;44.654;20.200;2023-02-15T12:01:16;21.88;;;16.40;;
59294;SDS011;45067;44.654;20.200;2023-02-15T12:03:47;23.42;;;15.18;;
59294;SDS011;45067;44.654;20.200;2023-02-15T12:06:27;21.05;;;16.83;;
59294;SDS011;45067;44.654;20.200;2023-02-15T12:08:55;22.50;;;16.30;;
59294;SDS011;45067;44.654;20.200;2023-02-15T12:11:29;19.70;;;15.95;;
59294;SDS011;45067;44.654;20.200;2023-02-15T12:13:59;20.95;;;17.33;;
59294;SDS011;45067;44.654;20.200;2023-02-15T12:16:26;18.73;;;16.33;;
59294;SDS011;45067;44.654;20.200;2023-02-15T12:18:55;19.52;;;16.75;;
59294;SDS011;45067;44.654;20.200;2023-02-15T12:21:26;20.75;;;16.73;;
59294;SDS011;45067;44.654;20.200;2023-02-15T12:23:55;18.35;;;15.45;;
59294;SDS011;45067;44.654;20.200;2023-02-15T12:26:30;20.88;;;17.52;;
59294;SDS011;45067;44.654;20.200;2023-02-15T12:28:59;20.00;;;16.75;;
59294;SDS011;45067;44.654;20.200;2023-02-15T12:31:36;18.92;;;16.92;;
59294;SDS011;45067;44.654;20.200;2023-02-15T12:34:03;19.10;;;16.02;;
59294;SDS011;45067;44.654;20.200;2023-02-15T12:36:40;18.15;;;16.23;;
59294;SDS011;45067;44.654;20.200;2023-02-15T12:41:37;20.63;;;17.05;;
59294;SDS011;45067;44.654;20.200;2023-02-15T12:46:30;18.25;;;16.40;;
59294;SDS011;45067;44.654;20.200;2023-02-15T12:51:42;16.77;;;14.98;;
59294;SDS011;45067;44.654;20.200;2023-02-15T12:56:53;19.42;;;17.33;;
59294;SDS011;45067;44.654;20.200;2023-02-15T12:59:19;18.08;;;15.95;;
59294;SDS011;45067;44.654;20.200;2023-02-15T13:01:45;18.80;;;17.00;;
59294;SDS011;45067;44.654;20.200;2023-02-15T13:07:07;18.50;;;16.52;;
59294;SDS011;45067;44.654;20.200;2023-02-15T13:09:37;19.92;;;17.55;;
59294;SDS011;45067;44.654;20.200;2023-02-15T13:12:16;19.40;;;17.40;;
59294;SDS011;45067;44.654;20.200;2023-02-15T13:14:44;19.15;;;17.25;;
59294;SDS011;45067;44.654;20.200;2023-02-15T13:17:13;19.73;;;17.67;;
59294;SDS011;45067;44.654;20.200;2023-02-15T13:19:46;19.15;;;17.15;;
59294;SDS011;45067;44.654;20.200;2023-02-15T13:22:19;17.98;;;16.17;;
59294;SDS011;45067;44.654;20.200;2023-02-15T13:24:57;18.63;;;16.67;;
59294;SDS011;45067;44.654;20.200;2023-02-15T13:27:29;18.60;;;16.70;;
59294;SDS011;45067;44.654;20.200;2023-02-15T13:30:16;19.90;;;17.90;;
59294;SDS011;45067;44.654;20.200;2023-02-15T13:32:43;19.60;;;17.38;;
59294;SDS011;45067;44.654;20.200;2023-02-15T13:35:13;19.42;;;17.45;;
59294;SDS011;45067;44.654;20.200;2023-02-15T13:40:44;19.92;;;17.77;;
59294;SDS011;45067;44.654;20.200;2023-02-15T13:43:33;19.25;;;17.02;;
59294;SDS011;45067;44.654;20.200;2023-02-15T13:58:14;18.80;;;16.92;;
59294;SDS011;45067;44.654;20.200;2023-02-15T14:11:01;20.45;;;18.25;;
59294;SDS011;45067;44.654;20.200;2023-02-15T14:13:39;24.48;;;19.30;;
59294;SDS011;45067;44.654;20.200;2023-02-15T14:35:01;22.83;;;18.05;;
59294;SDS011;45067;44.654;20.200;2023-02-15T14:40:17;22.17;;;17.38;;
59294;SDS011;45067;44.654;20.200;2023-02-15T14:43:08;21.60;;;18.52;;
59294;SDS011;45067;44.654;20.200;2023-02-15T14:45:49;21.90;;;17.95;;
59294;SDS011;45067;44.654;20.200;2023-02-15T14:48:17;22.27;;;17.30;;
59294;SDS011;45067;44.654;20.200;2023-02-15T14:50:47;26.60;;;20.10;;
59294;SDS011;45067;44.654;20.200;2023-02-15T14:53:17;22.90;;;17.55;;
59294;SDS011;45067;44.654;20.200;2023-02-15T14:56:04;20.95;;;16.70;;
59294;SDS011;45067;44.654;20.200;2023-02-15T14:58:30;19.35;;;15.90;;
59294;SDS011;45067;44.654;20.200;2023-02-15T15:01:03;27.92;;;20.65;;
59294;SDS011;45067;44.654;20.200;2023-02-15T15:03:30;25.02;;;19.90;;
59294;SDS011;45067;44.654;20.200;2023-02-15T15:05:57;27.75;;;21.83;;
59294;SDS011;45067;44.654;20.200;2023-02-15T15:08:27;25.13;;;19.98;;
59294;SDS011;45067;44.654;20.200;2023-02-15T15:10:54;31.55;;;23.15;;
59294;SDS011;45067;44.654;20.200;2023-02-15T15:15:56;23.52;;;17.70;;
59294;SDS011;45067;44.654;20.200;2023-02-15T15:21:07;23.35;;;17.45;;
59294;SDS011;45067;44.654;20.200;2023-02-15T15:23:38;24.60;;;18.13;;
59294;SDS011;45067;44.654;20.200;2023-02-15T15:26:21;24.48;;;18.98;;
59294;SDS011;45067;44.654;20.200;2023-02-15T15:34:09;31.70;;;23.17;;
59294;SDS011;45067;44.654;20.200;2023-02-15T15:41:53;33.88;;;25.40;;
59294;SDS011;45067;44.654;20.200;2023-02-15T15:44:47;29.60;;;21.08;;
59294;SDS011;45067;44.654;20.200;2023-02-15T15:50:22;32.88;;;21.85;;
59294;SDS011;45067;44.654;20.200;2023-02-15T15:52:53;37.47;;;25.67;;
59294;SDS011;45067;44.654;20.200;2023-02-15T15:55:23;38.78;;;26.13;;
59294;SDS011;45067;44.654;20.200;2023-02-15T15:57:54;37.97;;;25.90;;
59294;SDS011;45067;44.654;20.200;2023-02-15T16:00:28;36.88;;;27.17;;
59294;SDS011;45067;44.654;20.200;2023-02-15T16:05:59;41.60;;;28.20;;
59294;SDS011;45067;44.654;20.200;2023-02-15T16:08:30;36.20;;;23.60;;
59294;SDS011;45067;44.654;20.200;2023-02-15T16:10:56;35.70;;;25.08;;
59294;SDS011;45067;44.654;20.200;2023-02-15T16:13:23;34.45;;;23.30;;
59294;SDS011;45067;44.654;20.200;2023-02-15T16:15:51;38.35;;;26.58;;
59294;SDS011;45067;44.654;20.200;2023-02-15T16:21:22;43.63;;;28.85;;
59294;SDS011;45067;44.654;20.200;2023-02-15T16:28:56;38.33;;;25.92;;
59294;SDS011;45067;44.654;20.200;2023-02-15T16:31:22;35.58;;;24.13;;
59294;SDS011;45067;44.654;20.200;2023-02-15T16:36:52;39.35;;;25.17;;
59294;SDS011;45067;44.654;20.200;2023-02-15T16:39:21;43.22;;;28.02;;
59294;SDS011;45067;44.654;20.200;2023-02-15T16:41:48;49.55;;;31.70;;
59294;SDS011;45067;44.654;20.200;2023-02-15T16:44:16;39.97;;;26.52;;
59294;SDS011;45067;44.654;20.200;2023-02-15T16:46:43;42.72;;;27.70;;
59294;SDS011;45067;44.654;20.200;2023-02-15T16:52:18;49.83;;;31.27;;
59294;SDS011;45067;44.654;20.200;2023-02-15T16:54:45;50.22;;;31.27;;
59294;SDS011;45067;44.654;20.200;2023-02-15T16:57:18;53.97;;;29.90;;
59294;SDS011;45067;44.654;20.200;2023-02-15T16:59:46;75.43;;;42.08;;
59294;SDS011;45067;44.654;20.200;2023-02-15T17:11:15;92.75;;;57.40;;
59294;SDS011;45067;44.654;20.200;2023-02-15T17:16:27;127.78;;;72.90;;
59294;SDS011;45067;44.654;20.200;2023-02-15T17:18:54;122.00;;;71.70;;
59294;SDS011;45067;44.654;20.200;2023-02-15T17:21:33;104.32;;;63.20;;
59294;SDS011;45067;44.654;20.200;2023-02-15T17:24:02;95.28;;;58.08;;
59294;SDS011;45067;44.654;20.200;2023-02-15T17:29:02;113.55;;;63.25;;
59294;SDS011;45067;44.654;20.200;2023-02-15T17:34:01;101.20;;;59.35;;
59294;SDS011;45067;44.654;20.200;2023-02-15T17:36:29;97.57;;;58.60;;
59294;SDS011;45067;44.654;20.200;2023-02-15T17:41:24;108.72;;;63.90;;
59294;SDS011;45067;44.654;20.200;2023-02-15T17:43:51;111.15;;;65.88;;
59294;SDS011;45067;44.654;20.200;2023-02-15T17:46:17;110.55;;;65.47;;
59294;SDS011;45067;44.654;20.200;2023-02-15T17:48:47;104.63;;;60.28;;
59294;SDS011;45067;44.654;20.200;2023-02-15T17:51:13;97.75;;;57.95;;
59294;SDS011;45067;44.654;20.200;2023-02-15T17:53:40;97.32;;;53.75;;
59294;SDS011;45067;44.654;20.200;2023-02-15T17:56:26;95.22;;;56.53;;
59294;SDS011;45067;44.654;20.200;2023-02-15T17:58:52;94.25;;;56.17;;
59294;SDS011;45067;44.654;20.200;2023-02-15T18:01:18;97.30;;;58.53;;
59294;SDS011;45067;44.654;20.200;2023-02-15T18:04:04;97.65;;;57.65;;
59294;SDS011;45067;44.654;20.200;2023-02-15T18:06:50;91.78;;;53.45;;
59294;SDS011;45067;44.654;20.200;2023-02-15T18:09:34;84.63;;;51.97;;
59294;SDS011;45067;44.654;20.200;2023-02-15T18:12:20;92.70;;;54.15;;
59294;SDS011;45067;44.654;20.200;2023-02-15T18:14:47;87.47;;;52.60;;
59294;SDS011;45067;44.654;20.200;2023-02-15T18:17:16;90.13;;;54.38;;
59294;SDS011;45067;44.654;20.200;2023-02-15T18:19:43;96.50;;;57.83;;
59294;SDS011;45067;44.654;20.200;2023-02-15T18:22:10;103.90;;;58.35;;
59294;SDS011;45067;44.654;20.200;2023-02-15T18:24:36;90.75;;;55.35;;
59294;SDS011;45067;44.654;20.200;2023-02-15T18:27:03;80.18;;;47.33;;
59294;SDS011;45067;44.654;20.200;2023-02-15T18:29:29;75.63;;;46.78;;
59294;SDS011;45067;44.654;20.200;2023-02-15T18:31:55;76.07;;;47.83;;
59294;SDS011;45067;44.654;20.200;2023-02-15T18:34:27;105.95;;;59.85;;
59294;SDS011;45067;44.654;20.200;2023-02-15T18:36:54;139.00;;;80.00;;
59294;SDS011;45067;44.654;20.200;2023-02-15T18:39:35;165.45;;;94.22;;
59294;SDS011;45067;44.654;20.200;2023-02-15T18:42:03;199.65;;;109.82;;
59294;SDS011;45067;44.654;20.200;2023-02-15T18:44:29;248.60;;;124.15;;
59294;SDS011;45067;44.654;20.200;2023-02-15T18:46:55;244.77;;;127.95;;
59294;SDS011;45067;44.654;20.200;2023-02-15T18:49:21;300.58;;;144.40;;
59294;SDS011;45067;44.654;20.200;2023-02-15T18:51:47;416.63;;;180.90;;
59294;SDS011;45067;44.654;20.200;2023-02-15T18:54:22;419.15;;;183.40;;
59294;SDS011;45067;44.654;20.200;2023-02-15T18:56:59;403.88;;;169.88;;
59294;SDS011;45067;44.654;20.200;2023-02-15T18:59:26;428.02;;;194.18;;
59294;SDS011;45067;44.654;20.200;2023-02-15T19:01:55;383.92;;;171.27;;
59294;SDS011;45067;44.654;20.200;2023-02-15T19:04:22;339.65;;;149.98;;
59294;SDS011;45067;44.654;20.200;2023-02-15T19:06:48;366.38;;;171.93;;
59294;SDS011;45067;44.654;20.200;2023-02-15T19:09:16;342.27;;;160.57;;
59294;SDS011;45067;44.654;20.200;2023-02-15T19:11:44;208.20;;;107.82;;
59294;SDS011;45067;44.654;20.200;2023-02-15T19:14:26;166.68;;;89.82;;
59294;SDS011;45067;44.654;20.200;2023-02-15T19:19:19;140.88;;;74.10;;
59294;SDS011;45067;44.654;20.200;2023-02-15T19:21:45;133.48;;;71.78;;
59294;SDS011;45067;44.654;20.200;2023-02-15T19:24:16;117.63;;;68.57;;
59294;SDS011;45067;44.654;20.200;2023-02-15T19:26:43;104.20;;;61.28;;
59294;SDS011;45067;44.654;20.200;2023-02-15T19:29:11;93.78;;;54.05;;
59294;SDS011;45067;44.654;20.200;2023-02-15T19:31:38;95.68;;;56.50;;
59294;SDS011;45067;44.654;20.200;2023-02-15T19:34:14;84.68;;;48.55;;
59294;SDS011;45067;44.654;20.200;2023-02-15T19:36:41;54.53;;;35.35;;
59294;SDS011;45067;44.654;20.200;2023-02-15T19:39:11;63.60;;;37.92;;
59294;SDS011;45067;44.654;20.200;2023-02-15T19:41:43;58.03;;;34.40;;
59294;SDS011;45067;44.654;20.200;2023-02-15T19:44:09;62.30;;;38.42;;
59294;SDS011;45067;44.654;20.200;2023-02-15T19:46:35;73.85;;;43.75;;
59294;SDS011;45067;44.654;20.200;2023-02-15T19:49:02;83.88;;;47.00;;
59294;SDS011;45067;44.654;20.200;2023-02-15T19:51:28;87.75;;;50.10;;
59294;SDS011;45067;44.654;20.200;2023-02-15T19:53:54;69.50;;;40.40;;
59294;SDS011;45067;44.654;20.200;2023-02-15T19:56:22;54.60;;;32.90;;
59294;SDS011;45067;44.654;20.200;2023-02-15T19:58:48;57.88;;;34.63;;
59294;SDS011;45067;44.654;20.200;2023-02-15T20:01:16;62.45;;;37.80;;
59294;SDS011;45067;44.654;20.200;2023-02-15T20:03:43;66.10;;;37.15;;